createdAt,value
2022-11-10T00:00:04.779Z,0.000000
2022-11-10T00:01:00.271Z,0.000000
2022-11-10T00:02:00.328Z,0.000000
2022-11-10T00:03:00.290Z,0.000000
2022-11-10T00:04:00.445Z,22.500000
2022-11-10T00:05:03.489Z,22.500000
2022-11-10T00:06:00.373Z,33.750000
2022-11-10T00:07:00.420Z,33.750000
2022-11-10T00:08:00.388Z,67.500000
2022-11-10T00:09:00.332Z,67.500000
2022-11-10T00:10:06.909Z,67.500000
2022-11-10T00:11:00.328Z,78.750000
2022-11-10T00:12:00.431Z,78.750000
2022-11-10T00:13:00.372Z,78.750000
2022-11-10T00:14:00.430Z,78.750000
2022-11-10T00:15:03.366Z,78.750000
2022-11-10T00:16:00.621Z,90.000000
2022-11-10T00:17:00.387Z,90.000000
2022-11-10T00:18:00.462Z,67.500000
2022-11-10T00:19:00.398Z,67.500000
2022-11-10T00:20:04.880Z,67.500000
2022-11-10T00:21:00.415Z,90.000000
2022-11-10T00:22:00.512Z,90.000000
2022-11-10T00:23:00.430Z,90.000000
2022-11-10T00:24:00.508Z,0.000000
2022-11-10T00:25:05.084Z,0.000000
2022-11-10T00:26:00.500Z,78.750000
2022-11-10T00:27:00.458Z,78.750000
2022-11-10T00:28:00.576Z,78.750000
2022-11-10T00:29:00.492Z,90.000000
2022-11-10T00:30:03.718Z,90.000000
2022-11-10T00:31:00.487Z,45.000000
2022-11-10T00:32:00.559Z,45.000000
2022-11-10T00:33:00.504Z,67.500000
2022-11-10T00:34:00.581Z,67.500000
2022-11-10T00:35:04.702Z,67.500000
2022-11-10T00:36:00.626Z,78.750000
2022-11-10T00:37:00.533Z,78.750000
2022-11-10T00:38:00.578Z,56.250000
2022-11-10T00:39:00.560Z,56.250000
2022-11-10T00:40:04.975Z,90.000000
2022-11-10T00:41:00.645Z,90.000000
2022-11-10T00:42:00.636Z,90.000000
2022-11-10T00:43:00.551Z,22.500000
2022-11-10T00:44:00.639Z,22.500000
2022-11-10T00:45:03.784Z,22.500000
2022-11-10T00:46:00.677Z,45.000000
2022-11-10T00:47:00.593Z,45.000000
2022-11-10T00:48:00.678Z,45.000000
2022-11-10T00:49:00.611Z,78.750000
2022-11-10T00:50:05.509Z,78.750000
2022-11-10T00:51:00.636Z,33.750000
2022-11-10T00:52:00.743Z,33.750000
2022-11-10T00:53:00.646Z,33.750000
2022-11-10T00:54:00.736Z,56.250000
2022-11-10T00:55:03.718Z,56.250000
2022-11-10T00:56:00.719Z,56.250000
2022-11-10T00:57:00.666Z,67.500000
2022-11-10T00:58:00.774Z,67.500000
2022-11-10T00:59:00.689Z,33.750000
2022-11-10T01:00:05.190Z,33.750000
2022-11-10T01:01:00.790Z,33.750000
2022-11-10T01:02:00.810Z,45.000000
2022-11-10T01:03:00.739Z,45.000000
2022-11-10T01:04:00.929Z,33.750000
2022-11-10T01:05:03.842Z,33.750000
2022-11-10T01:06:00.840Z,33.750000
2022-11-10T01:07:00.803Z,67.500000
2022-11-10T01:08:00.830Z,67.500000
2022-11-10T01:09:00.778Z,78.750000
2022-11-10T01:10:05.401Z,78.750000
2022-11-10T01:11:00.790Z,78.750000
2022-11-10T01:12:00.870Z,56.250000
2022-11-10T01:13:00.804Z,56.250000
2022-11-10T01:14:00.869Z,67.500000
2022-11-10T01:15:03.772Z,67.500000
2022-11-10T01:16:00.978Z,67.500000
2022-11-10T01:17:00.851Z,0.000000
2022-11-10T01:18:00.935Z,0.000000
2022-11-10T01:19:00.870Z,0.000000
2022-11-10T01:20:04.412Z,78.750000
2022-11-10T01:21:00.879Z,78.750000
2022-11-10T01:22:01.005Z,67.500000
2022-11-10T01:23:00.875Z,67.500000
2022-11-10T01:24:00.965Z,78.750000
2022-11-10T01:25:04.070Z,78.750000
2022-11-10T01:26:00.971Z,67.500000
2022-11-10T01:27:00.927Z,67.500000
2022-11-10T01:28:01.011Z,67.500000
2022-11-10T01:29:00.930Z,45.000000
2022-11-10T01:30:05.505Z,45.000000
2022-11-10T01:31:00.943Z,45.000000
2022-11-10T01:32:01.157Z,45.000000
2022-11-10T01:33:00.964Z,45.000000
2022-11-10T01:34:01.070Z,45.000000
2022-11-10T01:35:05.764Z,45.000000
2022-11-10T01:36:01.045Z,45.000000
2022-11-10T01:37:00.974Z,67.500000
2022-11-10T01:38:01.076Z,67.500000
2022-11-10T01:39:01.012Z,67.500000
2022-11-10T01:40:05.541Z,90.000000
2022-11-10T01:41:01.014Z,90.000000
2022-11-10T01:42:01.099Z,45.000000
2022-11-10T01:43:01.028Z,45.000000
2022-11-10T01:44:01.107Z,45.000000
2022-11-10T01:45:15.752Z,78.750000
2022-11-10T01:46:01.118Z,78.750000
2022-11-10T01:47:01.055Z,90.000000
2022-11-10T01:48:01.176Z,90.000000
2022-11-10T01:49:01.067Z,67.500000
2022-11-10T01:50:04.174Z,67.500000
2022-11-10T01:51:01.115Z,67.500000
2022-11-10T01:52:01.158Z,90.000000
2022-11-10T01:53:01.091Z,90.000000
2022-11-10T01:54:01.187Z,90.000000
2022-11-10T01:55:04.487Z,90.000000
2022-11-10T01:56:01.191Z,90.000000
2022-11-10T01:57:01.144Z,67.500000
2022-11-10T01:58:01.197Z,67.500000
2022-11-10T01:59:01.124Z,78.750000
2022-11-10T02:00:05.855Z,78.750000
2022-11-10T02:01:00.214Z,78.750000
2022-11-10T02:02:00.226Z,45.000000
2022-11-10T02:03:00.207Z,45.000000
2022-11-10T02:04:00.299Z,45.000000
2022-11-10T02:05:03.135Z,56.250000
2022-11-10T02:06:00.279Z,56.250000
2022-11-10T02:07:00.287Z,56.250000
2022-11-10T02:08:00.281Z,56.250000
2022-11-10T02:09:00.236Z,78.750000
2022-11-10T02:10:04.974Z,78.750000
2022-11-10T02:11:00.219Z,78.750000
2022-11-10T02:12:00.312Z,78.750000
2022-11-10T02:13:00.215Z,78.750000
2022-11-10T02:14:00.315Z,78.750000
2022-11-10T02:15:03.267Z,56.250000
2022-11-10T02:16:00.315Z,56.250000
2022-11-10T02:17:00.257Z,56.250000
2022-11-10T02:18:00.348Z,90.000000
2022-11-10T02:19:00.284Z,90.000000
2022-11-10T02:20:03.823Z,67.500000
2022-11-10T02:21:00.315Z,67.500000
2022-11-10T02:22:00.341Z,101.250000
2022-11-10T02:23:00.309Z,101.250000
2022-11-10T02:24:00.381Z,101.250000
2022-11-10T02:25:03.238Z,45.000000
2022-11-10T02:26:00.388Z,45.000000
2022-11-10T02:27:00.360Z,45.000000
2022-11-10T02:28:00.405Z,0.000000
2022-11-10T02:29:00.330Z,0.000000
2022-11-10T02:30:04.864Z,56.250000
2022-11-10T02:31:00.339Z,56.250000
2022-11-10T02:32:00.423Z,90.000000
2022-11-10T02:33:00.567Z,90.000000
2022-11-10T02:34:00.439Z,90.000000
2022-11-10T02:35:03.519Z,33.750000
2022-11-10T02:36:00.482Z,33.750000
2022-11-10T02:37:00.388Z,33.750000
2022-11-10T02:38:00.476Z,56.250000
2022-11-10T02:39:00.433Z,56.250000
2022-11-10T02:40:05.215Z,56.250000
2022-11-10T02:41:00.444Z,56.250000
2022-11-10T02:42:00.524Z,56.250000
2022-11-10T02:43:00.477Z,90.000000
2022-11-10T02:44:00.512Z,90.000000
2022-11-10T02:45:03.571Z,56.250000
2022-11-10T02:46:00.537Z,56.250000
2022-11-10T02:47:00.476Z,56.250000
2022-11-10T02:48:00.545Z,11.250000
2022-11-10T02:49:00.474Z,11.250000
2022-11-10T02:50:04.940Z,11.250000
2022-11-10T02:51:00.506Z,33.750000
2022-11-10T02:52:00.619Z,33.750000
2022-11-10T02:53:00.509Z,67.500000
2022-11-10T02:54:00.582Z,67.500000
2022-11-10T02:55:03.472Z,33.750000
2022-11-10T02:56:00.632Z,33.750000
2022-11-10T02:57:00.534Z,33.750000
2022-11-10T02:58:00.614Z,56.250000
2022-11-10T02:59:00.555Z,56.250000
2022-11-10T03:00:05.170Z,56.250000
2022-11-10T03:01:00.629Z,90.000000
2022-11-10T03:02:00.685Z,90.000000
2022-11-10T03:03:00.596Z,90.000000
2022-11-10T03:04:32.919Z,90.000000
2022-11-10T03:05:03.621Z,90.000000
2022-11-10T03:06:01.257Z,45.000000
2022-11-10T03:07:00.689Z,45.000000
2022-11-10T03:08:00.923Z,22.500000
2022-11-10T03:09:00.639Z,22.500000
2022-11-10T03:10:05.018Z,22.500000
2022-11-10T03:11:00.655Z,45.000000
2022-11-10T03:12:00.930Z,45.000000
2022-11-10T03:13:00.661Z,78.750000
2022-11-10T03:14:02.484Z,78.750000
2022-11-10T03:15:03.775Z,78.750000
2022-11-10T03:16:00.987Z,56.250000
2022-11-10T03:17:00.695Z,56.250000
2022-11-10T03:18:00.986Z,56.250000
2022-11-10T03:19:00.711Z,56.250000
2022-11-10T03:20:05.192Z,56.250000
2022-11-10T03:21:00.730Z,90.000000
2022-11-10T03:22:01.009Z,90.000000
2022-11-10T03:23:00.740Z,90.000000
2022-11-10T03:24:01.073Z,78.750000
2022-11-10T03:25:03.797Z,78.750000
2022-11-10T03:26:00.922Z,33.750000
2022-11-10T03:27:00.778Z,33.750000
2022-11-10T03:28:01.048Z,11.250000
2022-11-10T03:29:00.775Z,11.250000
2022-11-10T03:30:05.385Z,11.250000
2022-11-10T03:31:00.799Z,11.250000
2022-11-10T03:32:00.949Z,11.250000
2022-11-10T03:33:00.822Z,45.000000
2022-11-10T03:34:01.310Z,45.000000
2022-11-10T03:35:33.525Z,0.000000
2022-11-10T03:36:01.305Z,0.000000
2022-11-10T03:37:00.849Z,0.000000
2022-11-10T03:38:01.310Z,78.750000
2022-11-10T03:39:00.874Z,78.750000
2022-11-10T03:40:05.463Z,90.000000
2022-11-10T03:41:20.270Z,90.000000
2022-11-10T03:42:01.337Z,90.000000
2022-11-10T03:43:00.888Z,101.250000
2022-11-10T03:44:01.217Z,101.250000
2022-11-10T03:45:05.170Z,101.250000
2022-11-10T03:46:01.405Z,0.000000
2022-11-10T03:47:00.926Z,0.000000
2022-11-10T03:48:01.382Z,0.000000
2022-11-10T03:49:00.947Z,0.000000
2022-11-10T03:50:05.395Z,33.750000
2022-11-10T03:51:00.961Z,33.750000
2022-11-10T03:52:01.447Z,33.750000
2022-11-10T03:53:00.970Z,0.000000
2022-11-10T03:54:01.467Z,0.000000
2022-11-10T03:55:05.298Z,0.000000
2022-11-10T03:56:01.330Z,45.000000
2022-11-10T03:57:01.019Z,45.000000
2022-11-10T03:58:01.456Z,45.000000
2022-11-10T03:59:01.016Z,11.250000
2022-11-10T04:00:05.528Z,11.250000
2022-11-10T04:01:01.056Z,0.000000
2022-11-10T04:02:01.427Z,0.000000
2022-11-10T04:03:01.071Z,0.000000
2022-11-10T04:04:01.526Z,0.000000
2022-11-10T04:05:04.412Z,0.000000
2022-11-10T04:06:01.527Z,22.500000
2022-11-10T04:07:01.126Z,22.500000
2022-11-10T04:08:01.509Z,22.500000
2022-11-10T04:09:01.130Z,33.750000
2022-11-10T04:10:05.749Z,33.750000
2022-11-10T04:11:01.137Z,33.750000
2022-11-10T04:12:01.640Z,33.750000
2022-11-10T04:13:00.170Z,33.750000
2022-11-10T04:14:00.267Z,33.750000
2022-11-10T04:15:03.128Z,33.750000
2022-11-10T04:16:00.269Z,33.750000
2022-11-10T04:17:00.195Z,33.750000
2022-11-10T04:18:00.294Z,33.750000
2022-11-10T04:19:00.201Z,0.000000
2022-11-10T04:20:04.884Z,0.000000
2022-11-10T04:21:00.264Z,0.000000
2022-11-10T04:22:00.318Z,11.250000
2022-11-10T04:23:00.273Z,11.250000
2022-11-10T04:24:00.349Z,33.750000
2022-11-10T04:25:03.317Z,33.750000
2022-11-10T04:26:00.360Z,45.000000
2022-11-10T04:27:00.299Z,45.000000
2022-11-10T04:28:00.398Z,45.000000
2022-11-10T04:29:00.298Z,33.750000
2022-11-10T04:30:41.416Z,33.750000
2022-11-10T04:31:00.347Z,33.750000
2022-11-10T04:32:00.432Z,45.000000
2022-11-10T04:33:00.355Z,45.000000
2022-11-10T04:34:00.422Z,78.750000
2022-11-10T04:35:00.840Z,78.750000
2022-11-10T04:36:00.460Z,56.250000
2022-11-10T04:37:00.377Z,56.250000
2022-11-10T04:38:00.489Z,56.250000
2022-11-10T04:39:00.410Z,78.750000
2022-11-10T04:40:01.792Z,78.750000
2022-11-10T04:41:00.402Z,78.750000
2022-11-10T04:42:02.677Z,0.000000
2022-11-10T04:43:00.424Z,0.000000
2022-11-10T04:44:00.555Z,56.250000
2022-11-10T04:45:00.862Z,56.250000
2022-11-10T04:46:00.510Z,56.250000
2022-11-10T04:47:00.464Z,67.500000
2022-11-10T04:48:00.534Z,67.500000
2022-11-10T04:49:00.468Z,45.000000
2022-11-10T04:50:01.702Z,45.000000
2022-11-10T04:51:00.490Z,33.750000
2022-11-10T04:52:00.585Z,33.750000
2022-11-10T04:53:00.504Z,33.750000
2022-11-10T04:54:00.594Z,78.750000
2022-11-10T04:55:00.940Z,78.750000
2022-11-10T04:56:00.620Z,78.750000
2022-11-10T04:57:00.523Z,78.750000
2022-11-10T04:58:00.598Z,78.750000
2022-11-10T04:59:00.549Z,56.250000
2022-11-10T05:00:01.989Z,56.250000
2022-11-10T05:01:00.658Z,56.250000
2022-11-10T05:02:00.678Z,67.500000
2022-11-10T05:03:00.592Z,67.500000
2022-11-10T05:04:00.674Z,67.500000
2022-11-10T05:05:01.021Z,67.500000
2022-11-10T05:06:00.692Z,67.500000
2022-11-10T05:07:00.737Z,45.000000
2022-11-10T05:08:00.740Z,45.000000
2022-11-10T05:09:00.640Z,45.000000
2022-11-10T05:10:02.030Z,45.000000
2022-11-10T05:11:00.660Z,45.000000
2022-11-10T05:12:00.760Z,33.750000
2022-11-10T05:13:00.669Z,33.750000
2022-11-10T05:14:00.770Z,33.750000
2022-11-10T05:15:01.182Z,56.250000
2022-11-10T05:16:00.792Z,56.250000
2022-11-10T05:17:00.699Z,56.250000
2022-11-10T05:18:00.786Z,56.250000
2022-11-10T05:19:00.737Z,56.250000
2022-11-10T05:20:02.001Z,33.750000
2022-11-10T05:21:00.762Z,33.750000
2022-11-10T05:22:00.815Z,0.000000
2022-11-10T05:23:00.755Z,0.000000
2022-11-10T05:24:00.844Z,0.000000
2022-11-10T05:25:05.548Z,0.000000
2022-11-10T05:26:00.851Z,0.000000
2022-11-10T05:27:00.810Z,45.000000
2022-11-10T05:28:00.879Z,45.000000
2022-11-10T05:29:00.810Z,45.000000
2022-11-10T05:30:04.353Z,11.250000
2022-11-10T05:31:00.853Z,11.250000
2022-11-10T05:32:00.935Z,45.000000
2022-11-10T05:33:00.849Z,45.000000
2022-11-10T05:34:00.912Z,45.000000
2022-11-10T05:35:05.052Z,11.250000
2022-11-10T05:36:00.984Z,11.250000
2022-11-10T05:37:00.919Z,11.250000
2022-11-10T05:38:00.980Z,22.500000
2022-11-10T05:39:00.915Z,22.500000
2022-11-10T05:40:05.345Z,33.750000
2022-11-10T05:41:00.919Z,33.750000
2022-11-10T05:42:01.007Z,33.750000
2022-11-10T05:43:00.954Z,22.500000
2022-11-10T05:44:01.045Z,22.500000
2022-11-10T05:45:05.185Z,33.750000
2022-11-10T05:46:01.036Z,33.750000
2022-11-10T05:47:00.961Z,33.750000
2022-11-10T05:48:01.105Z,33.750000
2022-11-10T05:49:01.003Z,33.750000
2022-11-10T05:50:05.491Z,11.250000
2022-11-10T05:51:00.989Z,11.250000
2022-11-10T05:52:01.074Z,11.250000
2022-11-10T05:53:01.007Z,22.500000
2022-11-10T05:54:01.087Z,22.500000
2022-11-10T05:55:04.029Z,0.000000
2022-11-10T05:56:01.104Z,0.000000
2022-11-10T05:57:01.045Z,0.000000
2022-11-10T05:58:01.110Z,78.750000
2022-11-10T05:59:01.042Z,78.750000
2022-11-10T06:00:06.441Z,78.750000
2022-11-10T06:01:01.102Z,67.500000
2022-11-10T06:02:01.178Z,67.500000
2022-11-10T06:03:01.128Z,78.750000
2022-11-10T06:04:33.637Z,78.750000
2022-11-10T06:05:04.143Z,90.000000
2022-11-10T06:06:01.251Z,90.000000
2022-11-10T06:07:01.264Z,67.500000
2022-11-10T06:08:01.222Z,67.500000
2022-11-10T06:09:01.163Z,67.500000
2022-11-10T06:10:05.588Z,0.000000
2022-11-10T06:11:01.187Z,0.000000
2022-11-10T06:12:01.289Z,0.000000
2022-11-10T06:13:01.189Z,90.000000
2022-11-10T06:14:01.250Z,90.000000
2022-11-10T06:15:05.450Z,78.750000
2022-11-10T06:16:01.269Z,78.750000
2022-11-10T06:17:01.219Z,22.500000
2022-11-10T06:18:01.319Z,22.500000
2022-11-10T06:19:01.222Z,22.500000
2022-11-10T06:20:06.443Z,56.250000
2022-11-10T06:21:00.256Z,56.250000
2022-11-10T06:22:05.058Z,56.250000
2022-11-10T06:23:00.263Z,67.500000
2022-11-10T06:24:00.375Z,67.500000
2022-11-10T06:25:03.221Z,67.500000
2022-11-10T06:26:00.366Z,67.500000
2022-11-10T06:27:00.298Z,67.500000
2022-11-10T06:28:00.377Z,33.750000
2022-11-10T06:29:00.349Z,33.750000
2022-11-10T06:30:04.820Z,56.250000
2022-11-10T06:31:00.327Z,56.250000
2022-11-10T06:32:00.395Z,56.250000
2022-11-10T06:33:00.356Z,45.000000
2022-11-10T06:34:07.661Z,45.000000
2022-11-10T06:35:03.332Z,56.250000
2022-11-10T06:36:00.770Z,56.250000
2022-11-10T06:37:00.348Z,56.250000
2022-11-10T06:38:00.416Z,56.250000
2022-11-10T06:39:00.384Z,56.250000
2022-11-10T06:40:04.848Z,90.000000
2022-11-10T06:41:00.396Z,90.000000
2022-11-10T06:42:00.597Z,90.000000
2022-11-10T06:43:00.399Z,78.750000
2022-11-10T06:44:00.470Z,78.750000
2022-11-10T06:45:04.699Z,78.750000
2022-11-10T06:46:00.473Z,78.750000
2022-11-10T06:47:00.420Z,78.750000
2022-11-10T06:48:00.531Z,101.250000
2022-11-10T06:49:00.428Z,101.250000
2022-11-10T06:50:04.832Z,45.000000
2022-11-10T06:51:00.455Z,45.000000
2022-11-10T06:52:00.728Z,45.000000
2022-11-10T06:53:00.443Z,33.750000
2022-11-10T06:54:00.556Z,33.750000
2022-11-10T06:55:03.453Z,33.750000
2022-11-10T06:56:00.550Z,45.000000
2022-11-10T06:57:00.501Z,45.000000
2022-11-10T06:58:00.562Z,45.000000
2022-11-10T06:59:00.494Z,45.000000
2022-11-10T07:00:05.019Z,45.000000
2022-11-10T07:01:00.589Z,45.000000
2022-11-10T07:02:00.600Z,45.000000
2022-11-10T07:03:00.550Z,33.750000
2022-11-10T07:04:18.617Z,33.750000
2022-11-10T07:05:03.598Z,33.750000
2022-11-10T07:06:00.634Z,22.500000
2022-11-10T07:07:00.652Z,22.500000
2022-11-10T07:08:00.655Z,11.250000
2022-11-10T07:09:00.571Z,11.250000
2022-11-10T07:10:07.191Z,11.250000
2022-11-10T07:11:00.585Z,11.250000
2022-11-10T07:12:00.687Z,11.250000
2022-11-10T07:13:00.592Z,11.250000
2022-11-10T07:14:00.669Z,11.250000
2022-11-10T07:15:05.309Z,11.250000
2022-11-10T07:16:00.682Z,0.000000
2022-11-10T07:17:00.630Z,0.000000
2022-11-10T07:18:00.698Z,0.000000
2022-11-10T07:19:00.630Z,67.500000
2022-11-10T07:20:04.021Z,67.500000
2022-11-10T07:21:00.788Z,22.500000
2022-11-10T07:22:00.720Z,22.500000
2022-11-10T07:23:00.670Z,22.500000
2022-11-10T07:24:00.776Z,22.500000
2022-11-10T07:25:04.977Z,22.500000
2022-11-10T07:26:00.753Z,22.500000
2022-11-10T07:27:00.732Z,22.500000
2022-11-10T07:28:00.771Z,22.500000
2022-11-10T07:29:00.702Z,22.500000
2022-11-10T07:30:05.143Z,22.500000
2022-11-10T07:31:00.727Z,22.500000
2022-11-10T07:32:00.809Z,22.500000
2022-11-10T07:33:00.775Z,22.500000
2022-11-10T07:34:00.805Z,33.750000
2022-11-10T07:35:05.015Z,33.750000
2022-11-10T07:36:00.843Z,33.750000
2022-11-10T07:37:00.755Z,33.750000
2022-11-10T07:38:00.843Z,33.750000
2022-11-10T07:39:00.808Z,22.500000
2022-11-10T07:40:04.272Z,22.500000
2022-11-10T07:41:00.801Z,22.500000
2022-11-10T07:42:00.913Z,22.500000
2022-11-10T07:43:00.797Z,22.500000
2022-11-10T07:44:00.873Z,22.500000
2022-11-10T07:45:08.011Z,22.500000
2022-11-10T07:46:00.909Z,22.500000
2022-11-10T07:47:00.830Z,11.250000
2022-11-10T07:48:00.909Z,11.250000
2022-11-10T07:49:00.851Z,22.500000
2022-11-10T07:50:07.341Z,22.500000
2022-11-10T07:51:00.927Z,22.500000
2022-11-10T07:52:00.921Z,45.000000
2022-11-10T07:53:00.872Z,45.000000
2022-11-10T07:54:00.952Z,33.750000
2022-11-10T07:55:05.640Z,33.750000
2022-11-10T07:56:00.964Z,22.500000
2022-11-10T07:57:00.936Z,22.500000
2022-11-10T07:58:00.973Z,22.500000
2022-11-10T07:59:00.905Z,56.250000
2022-11-10T08:00:04.631Z,56.250000
2022-11-10T08:01:00.940Z,56.250000
2022-11-10T08:02:01.090Z,22.500000
2022-11-10T08:03:00.985Z,22.500000
2022-11-10T08:04:01.038Z,33.750000
2022-11-10T08:05:05.315Z,33.750000
2022-11-10T08:06:01.064Z,33.750000
2022-11-10T08:07:01.154Z,33.750000
2022-11-10T08:08:01.078Z,33.750000
2022-11-10T08:09:01.047Z,45.000000
2022-11-10T08:10:06.272Z,45.000000
2022-11-10T08:11:01.023Z,45.000000
2022-11-10T08:12:01.113Z,45.000000
2022-11-10T08:13:01.044Z,45.000000
2022-11-10T08:14:01.144Z,45.000000
2022-11-10T08:15:05.309Z,45.000000
2022-11-10T08:16:01.149Z,45.000000
2022-11-10T08:17:01.071Z,33.750000
2022-11-10T08:18:01.149Z,33.750000
2022-11-10T08:19:01.080Z,33.750000
2022-11-10T08:20:05.487Z,33.750000
2022-11-10T08:21:01.134Z,90.000000
2022-11-10T08:22:01.178Z,90.000000
2022-11-10T08:23:01.113Z,90.000000
2022-11-10T08:24:01.188Z,33.750000
2022-11-10T08:25:05.420Z,33.750000
2022-11-10T08:26:01.298Z,56.250000
2022-11-10T08:27:01.139Z,56.250000
2022-11-10T08:28:01.217Z,67.500000
2022-11-10T08:29:01.142Z,67.500000
2022-11-10T08:30:04.335Z,67.500000
2022-11-10T08:31:05.321Z,56.250000
2022-11-10T08:32:01.251Z,56.250000
2022-11-10T08:33:01.184Z,56.250000
2022-11-10T08:34:01.257Z,90.000000
2022-11-10T08:35:04.478Z,90.000000
2022-11-10T08:36:01.291Z,90.000000
2022-11-10T08:37:00.195Z,67.500000
2022-11-10T08:38:02.971Z,67.500000
2022-11-10T08:39:00.219Z,101.250000
2022-11-10T08:40:04.727Z,101.250000
2022-11-10T08:41:00.229Z,101.250000
2022-11-10T08:42:00.322Z,101.250000
2022-11-10T08:43:00.243Z,101.250000
2022-11-10T08:44:00.336Z,101.250000
2022-11-10T08:45:04.515Z,101.250000
2022-11-10T08:46:00.328Z,101.250000
2022-11-10T08:47:00.257Z,45.000000
2022-11-10T08:48:00.343Z,45.000000
2022-11-10T08:49:00.273Z,45.000000
2022-11-10T08:50:03.728Z,56.250000
2022-11-10T08:51:00.305Z,56.250000
2022-11-10T08:52:00.373Z,56.250000
2022-11-10T08:53:00.314Z,56.250000
2022-11-10T08:54:00.389Z,90.000000
2022-11-10T08:55:05.618Z,90.000000
2022-11-10T08:56:00.408Z,90.000000
2022-11-10T08:57:00.328Z,90.000000
2022-11-10T08:58:00.464Z,90.000000
2022-11-10T08:59:00.326Z,90.000000
2022-11-10T09:00:03.940Z,56.250000
2022-11-10T09:01:00.405Z,56.250000
2022-11-10T09:02:00.528Z,67.500000
2022-11-10T09:03:00.401Z,67.500000
2022-11-10T09:04:00.609Z,67.500000
2022-11-10T09:05:07.008Z,56.250000
2022-11-10T09:06:00.731Z,56.250000
2022-11-10T09:07:00.563Z,56.250000
2022-11-10T09:08:01.057Z,90.000000
2022-11-10T09:09:00.442Z,90.000000
2022-11-10T09:10:07.911Z,78.750000
2022-11-10T09:11:00.452Z,78.750000
2022-11-10T09:12:00.562Z,67.500000
2022-11-10T09:13:00.479Z,67.500000
2022-11-10T09:14:01.225Z,67.500000
2022-11-10T09:15:04.707Z,67.500000
2022-11-10T09:16:00.951Z,67.500000
2022-11-10T09:17:00.486Z,67.500000
2022-11-10T09:18:00.571Z,67.500000
2022-11-10T09:19:00.550Z,67.500000
2022-11-10T09:20:05.149Z,56.250000
2022-11-10T09:21:00.517Z,56.250000
2022-11-10T09:22:00.602Z,67.500000
2022-11-10T09:23:00.513Z,67.500000
2022-11-10T09:24:00.596Z,45.000000
2022-11-10T09:25:04.852Z,45.000000
2022-11-10T09:26:00.619Z,45.000000
2022-11-10T09:27:00.557Z,101.250000
2022-11-10T09:28:00.637Z,101.250000
2022-11-10T09:29:00.565Z,101.250000
2022-11-10T09:30:31.449Z,67.500000
2022-11-10T09:31:00.589Z,67.500000
2022-11-10T09:32:00.652Z,67.500000
2022-11-10T09:33:00.607Z,67.500000
2022-11-10T09:34:00.671Z,67.500000
2022-11-10T09:35:05.061Z,67.500000
2022-11-10T09:36:00.717Z,67.500000
2022-11-10T09:37:00.619Z,56.250000
2022-11-10T09:38:00.710Z,56.250000
2022-11-10T09:39:00.638Z,56.250000
2022-11-10T09:40:06.439Z,90.000000
2022-11-10T09:41:00.651Z,90.000000
2022-11-10T09:42:00.742Z,78.750000
2022-11-10T09:43:00.649Z,78.750000
2022-11-10T09:44:00.729Z,78.750000
2022-11-10T09:45:04.948Z,67.500000
2022-11-10T09:46:00.767Z,67.500000
2022-11-10T09:47:00.686Z,45.000000
2022-11-10T09:48:00.795Z,45.000000
2022-11-10T09:49:00.695Z,45.000000
2022-11-10T09:50:05.537Z,78.750000
2022-11-10T09:51:00.721Z,78.750000
2022-11-10T09:52:00.787Z,78.750000
2022-11-10T09:53:00.740Z,90.000000
2022-11-10T09:54:00.830Z,90.000000
2022-11-10T09:55:05.330Z,90.000000
2022-11-10T09:56:00.818Z,90.000000
2022-11-10T09:57:00.863Z,56.250000
2022-11-10T09:58:01.120Z,56.250000
2022-11-10T09:59:00.962Z,56.250000
2022-11-10T10:00:08.230Z,67.500000
2022-11-10T10:01:00.859Z,67.500000
2022-11-10T10:02:00.898Z,67.500000
2022-11-10T10:03:00.833Z,78.750000
2022-11-10T10:04:00.894Z,78.750000
2022-11-10T10:05:06.045Z,78.750000
2022-11-10T10:06:00.909Z,78.750000
2022-11-10T10:07:10.566Z,78.750000
2022-11-10T10:08:01.056Z,45.000000
2022-11-10T10:09:00.859Z,45.000000
2022-11-10T10:10:07.564Z,67.500000
2022-11-10T10:11:00.881Z,67.500000
2022-11-10T10:12:00.983Z,67.500000
2022-11-10T10:13:00.891Z,78.750000
2022-11-10T10:14:00.989Z,78.750000
2022-11-10T10:15:05.156Z,78.750000
2022-11-10T10:16:01.028Z,90.000000
2022-11-10T10:17:00.934Z,90.000000
2022-11-10T10:18:01.025Z,78.750000
2022-11-10T10:19:00.917Z,78.750000
2022-11-10T10:20:05.377Z,78.750000
2022-11-10T10:21:00.951Z,78.750000
2022-11-10T10:22:01.058Z,78.750000
2022-11-10T10:23:00.957Z,67.500000
2022-11-10T10:24:11.310Z,67.500000
2022-11-10T10:25:04.103Z,67.500000
2022-11-10T10:26:01.066Z,67.500000
2022-11-10T10:27:00.987Z,67.500000
2022-11-10T10:28:01.083Z,67.500000
2022-11-10T10:29:01.005Z,78.750000
2022-11-10T10:30:07.828Z,78.750000
2022-11-10T10:31:01.597Z,56.250000
2022-11-10T10:32:01.103Z,56.250000
2022-11-10T10:33:01.041Z,67.500000
2022-11-10T10:34:01.175Z,67.500000
2022-11-10T10:35:05.249Z,67.500000
2022-11-10T10:36:01.131Z,67.500000
2022-11-10T10:37:01.055Z,67.500000
2022-11-10T10:38:01.139Z,67.500000
2022-11-10T10:39:01.084Z,67.500000
2022-11-10T10:40:05.508Z,67.500000
2022-11-10T10:41:01.072Z,67.500000
2022-11-10T10:42:01.199Z,67.500000
2022-11-10T10:43:01.097Z,78.750000
2022-11-10T10:44:01.160Z,78.750000
2022-11-10T10:45:04.155Z,78.750000
2022-11-10T10:46:01.208Z,90.000000
2022-11-10T10:47:01.124Z,90.000000
2022-11-10T10:48:01.218Z,90.000000
2022-11-10T10:49:26.914Z,67.500000
2022-11-10T10:50:07.603Z,67.500000
2022-11-10T10:51:01.167Z,67.500000
2022-11-10T10:52:01.257Z,56.250000
2022-11-10T10:53:00.182Z,56.250000
2022-11-10T10:54:00.261Z,56.250000
2022-11-10T10:55:04.899Z,56.250000
2022-11-10T10:56:00.272Z,90.000000
2022-11-10T10:57:00.214Z,90.000000
2022-11-10T10:58:00.329Z,90.000000
2022-11-10T10:59:00.210Z,90.000000
2022-11-10T11:00:06.668Z,90.000000
2022-11-10T11:01:00.295Z,56.250000
2022-11-10T11:02:00.369Z,56.250000
2022-11-10T11:03:04.236Z,56.250000
2022-11-10T11:04:00.458Z,78.750000
2022-11-10T11:05:03.392Z,78.750000
2022-11-10T11:06:00.472Z,56.250000
2022-11-10T11:07:00.330Z,56.250000
2022-11-10T11:08:00.347Z,56.250000
2022-11-10T11:09:00.507Z,78.750000
2022-11-10T11:10:03.810Z,78.750000
2022-11-10T11:11:00.286Z,78.750000
2022-11-10T11:12:00.387Z,56.250000
2022-11-10T11:13:00.292Z,56.250000
2022-11-10T11:14:00.378Z,101.250000
2022-11-10T11:15:03.321Z,101.250000
2022-11-10T11:16:00.437Z,56.250000
2022-11-10T11:17:00.376Z,56.250000
2022-11-10T11:18:00.430Z,56.250000
2022-11-10T11:19:00.342Z,56.250000
2022-11-10T11:20:05.430Z,56.250000
2022-11-10T11:21:00.367Z,45.000000
2022-11-10T11:22:00.487Z,45.000000
2022-11-10T11:23:00.365Z,45.000000
2022-11-10T11:24:00.466Z,78.750000